Aviation Digital Data Service (ADDS)

Output produced by METARs form (1418 UTC 22 April 2019)
found at http://www.aviationweather.gov/metar/data/
 
Forecast for: RJOB (OKAYAMA AIRPORT , JP)
Text: TAF RJOB 221108Z 2212/2318 08005KT CAVOK
Forecast period: 1200 UTC 22 April 2019 to 1800 UTC 23 April 2019
Forecast type: FROM: standard forecast or significant change
Winds: from the E (80 degrees) at 6 MPH (5 knots; 2.6 m/s)
Visibility: 6 or more miles 10+ km)
Ceiling: unknown
Clouds: missing
Weather: NSW  (no significant weather)
Text: TEMPO 2312/2318 4000 -RA BR FEW002 SCT005 BKN008
Forecast period: 1200 to 1800 UTC 23 April 2019
Forecast type: TEMPORARY: The following changes expected for less than half the time period
Visibility: 2.49 miles (4.01 km)
Ceiling: 800 feet AGL
Clouds: few clouds at 200 feet AGL
scattered clouds at 500 feet AGL
broken clouds at 800 feet AGL
Weather: -RA BR  (light rain, mist)